Terminal Aerodrome Forecast
Issued by NWS Billings, MT

Home | Current Version | Previous Version | Text Only | Print | Product List | Glossary On
Versions: 1 2 3 4 5 6 7 8 9 10 11 12 13 14 15 16 17 18 19 20 21 22 23 24 25 26 27 28
000
FTUS45 KBYZ 242320
TAFSHR
TAF
KSHR 242320Z 2500/2524 12006KT P6SM VCTS SCT050CB SCT150
     FM250300 31012KT P6SM VCTS BKN050CB BKN100
     FM250600 30012KT P6SM -SHRA SCT025 BKN050
     FM251200 32008KT P6SM -SHRA SCT015 BKN025 OVC035
     FM251800 32010KT P6SM VCTS FEW040CB OVC080=

USA.gov is the U.S. government's official web portal to all federal, state and local government web resources and services.